Aviation Digital Data Service (ADDS)

Output produced by METARs form (1442 UTC 05 August 2021)
found at http://aviationweather.gov/metar/data/
 
METAR text: KLOT 051435Z AUTO 19003KT 10SM CLR 24/17 A3013 RMK AO2 T02400174
Conditions at: KLOT (ROMEOVILLE/CHI , IL, US) observed 1435 UTC 05 August 2021
Temperature: 24.0°C (75°F)
Dewpoint: 17.4°C (63°F) [RH = 67%]
Pressure (altimeter): 30.13 inches Hg (1020.4 mb)
Winds: from the S (190 degrees) at 3 MPH (3 knots; 1.5 m/s)
Visibility: 10 or more miles (16+ km)
Ceiling: at least 12,000 feet AGL
Clouds: sky clear below 12,000 feet AGL
Weather: automated observation with no human augmentation;
there may or may not be significant weather present at this time

METAR text: KLOT 051415Z AUTO 00000KT 10SM CLR 23/18 A3014 RMK AO2 T02320181
Conditions at: KLOT (ROMEOVILLE/CHI , IL, US) observed 1415 UTC 05 August 2021
Temperature: 23.2°C (74°F)
Dewpoint: 18.1°C (65°F) [RH = 73%]
Pressure (altimeter): 30.14 inches Hg (1020.7 mb)
Winds: calm
Visibility: 10 or more miles (16+ km)
Ceiling: at least 12,000 feet AGL
Clouds: sky clear below 12,000 feet AGL
Weather: automated observation with no human augmentation;
there may or may not be significant weather present at this time

METAR text: KLOT 051355Z AUTO 17004KT 10SM CLR 23/18 A3014 RMK AO2 T02260181
Conditions at: KLOT (ROMEOVILLE/CHI , IL, US) observed 1355 UTC 05 August 2021
Temperature: 22.6°C (73°F)
Dewpoint: 18.1°C (65°F) [RH = 76%]
Pressure (altimeter): 30.14 inches Hg (1020.7 mb)
Winds: from the S (170 degrees) at 5 MPH (4 knots; 2.1 m/s)
Visibility: 10 or more miles (16+ km)
Ceiling: at least 12,000 feet AGL
Clouds: sky clear below 12,000 feet AGL
Weather: automated observation with no human augmentation;
there may or may not be significant weather present at this time

METAR text: KLOT 051335Z AUTO 00000KT 7SM CLR 21/19 A3014 RMK AO2 T02120190
Conditions at: KLOT (ROMEOVILLE/CHI , IL, US) observed 1335 UTC 05 August 2021
Temperature: 21.2°C (70°F)
Dewpoint: 19.0°C (66°F) [RH = 87%]
Pressure (altimeter): 30.14 inches Hg (1020.7 mb)
Winds: calm
Visibility: 7 miles (11 km)
Ceiling: at least 12,000 feet AGL
Clouds: sky clear below 12,000 feet AGL
Weather: automated observation with no human augmentation;
there may or may not be significant weather present at this time

METAR text: KLOT 051315Z AUTO 00000KT 7SM CLR 21/19 A3014 RMK AO2 T02050190
Conditions at: KLOT (ROMEOVILLE/CHI , IL, US) observed 1315 UTC 05 August 2021
Temperature: 20.5°C (69°F)
Dewpoint: 19.0°C (66°F) [RH = 91%]
Pressure (altimeter): 30.14 inches Hg (1020.7 mb)
Winds: calm
Visibility: 7 miles (11 km)
Ceiling: at least 12,000 feet AGL
Clouds: sky clear below 12,000 feet AGL
Weather: automated observation with no human augmentation;
there may or may not be significant weather present at this time

METAR text: KLOT 051255Z AUTO 00000KT 5SM BR CLR 20/19 A3014 RMK AO2 T01950185
Conditions at: KLOT (ROMEOVILLE/CHI , IL, US) observed 1255 UTC 05 August 2021
Temperature: 19.5°C (67°F)
Dewpoint: 18.5°C (65°F) [RH = 94%]
Pressure (altimeter): 30.14 inches Hg (1020.7 mb)
Winds: calm
Visibility: 5 miles ( 8 km)
Ceiling: at least 12,000 feet AGL
Clouds: sky clear below 12,000 feet AGL
Weather: BR  (mist)